EDT,Max TemperatureF,Mean TemperatureF,Min TemperatureF,Max Dew PointF,MeanDew PointF,Min DewpointF,Max Humidity, Mean Humidity, Min Humidity, Max Sea Level PressureIn, Mean Sea Level PressureIn, Min Sea Level PressureIn, Max VisibilityMiles, Mean VisibilityMiles, Min VisibilityMiles, Max Wind SpeedMPH, Mean Wind SpeedMPH, Max Gust SpeedMPH,PrecipitationIn, CloudCover, Events, WindDirDegrees
2013-9-1,79,74,69,70,69,68,100,90,74,29.87,29.84,29.80,10,8,3,12,6,,0.00,5,Rain,182
2013-9-2,84,76,66,70,68,64,100,84,56,29.86,29.81,29.75,10,7,0,18,8,23,0.17,5,Fog-Rain,237
2013-9-3,72,64,60,63,58,53,100,84,57,30.06,29.94,29.84,10,8,0,12,6,17,0.00,5,Fog,308
2013-9-4,75,64,53,56,54,52,96,71,48,30.15,30.10,30.06,10,9,3,12,6,,0.00,0,,247
2013-9-5,73,65,57,59,54,46,88,69,46,30.23,30.14,30.08,10,10,10,9,7,17,0.00,3,,307
2013-9-6,73,60,48,47,43,36,90,56,27,30.29,30.23,30.15,10,10,10,7,4,,0.00,0,,51
2013-9-7,78,63,48,56,50,46,100,72,33,30.14,30.08,29.96,10,7,0,9,3,,0.00,1,Fog,193
2013-9-8,79,71,63,66,61,55,84,73,60,30.07,29.99,29.93,10,10,8,9,5,16,0.00,5,,78
2013-9-9,81,68,57,72,63,55,94,84,67,30.12,30.07,30.03,10,8,1,7,4,,0.07,4,Rain,130
2013-9-10,90,79,69,73,70,67,93,78,57,30.15,30.11,30.06,9,7,4,14,9,21,0.00,1,,194
2013-9-11,87,78,72,73,70,66,97,81,65,30.17,30.11,30.03,10,7,3,10,7,,0.01,2,Rain,186
2013-9-12,77,69,63,70,67,61,100,91,73,30.01,29.91,29.82,10,6,1,13,7,,0.05,5,Rain,229
2013-9-13,66,60,52,60,52,44,96,82,59,30.04,29.91,29.83,10,9,5,15,7,24,0.10,7,Rain,322
2013-9-14,64,57,50,47,44,40,87,69,44,30.19,30.12,30.03,10,10,10,8,4,,0.00,5,,331
2013-9-15,70,56,44,54,48,43,100,78,50,30.21,30.15,30.09,10,8,0,12,5,17,0.00,1,Fog,179
2013-9-16,69,61,52,56,54,49,100,85,55,30.33,30.18,30.09,10,6,2,12,4,20,0.25,6,Rain,325
2013-9-17,69,57,46,50,45,41,96,70,44,30.42,30.34,30.29,10,10,10,8,4,,0.00,0,,71
2013-9-18,73,60,48,53,47,40,81,64,44,30.27,30.21,30.14,10,10,10,8,5,,0.00,1,,147
2013-9-19,75,68,60,61,58,54,97,77,53,30.16,30.12,30.05,10,8,3,9,4,,0.00,5,,177
2013-9-20,79,68,59,67,61,57,100,88,64,30.06,30.00,29.85,10,5,0,9,6,,0.00,4,Fog,164
2013-9-21,70,63,57,66,60,56,100,93,81,29.83,29.75,29.70,10,5,1,17,8,29,1.19,6,Rain,235
2013-9-22,62,56,52,55,51,43,100,89,55,30.04,29.89,29.81,10,6,0,12,6,18,0.01,7,Fog,309
2013-9-23,59,52,48,48,43,39,89,71,57,30.17,30.12,30.04,10,10,10,7,3,,0.00,6,,356
2013-9-24,68,54,39,45,42,39,100,77,36,30.14,30.09,29.99,10,6,0,7,1,,0.00,0,Fog,45
2013-9-25,73,60,48,50,47,45,96,66,39,30.00,29.95,29.90,10,9,5,6,2,,0.00,0,,58
2013-9-26,73,62,51,51,49,44,96,64,34,30.09,30.03,29.95,10,10,8,6,2,,0.00,0,,9
2013-9-27,73,62,51,53,50,48,92,68,42,30.21,30.17,30.10,10,10,5,6,2,,0.00,0,,73
2013-9-28,73,62,51,53,51,48,96,72,46,30.28,30.22,30.17,10,10,6,9,5,,0.00,1,,112
2013-9-29,73,62,52,55,52,47,86,70,51,30.17,30.10,30.03,10,10,10,9,6,,0.00,2,,158
2013-9-30,70,62,55,60,56,52,94,82,64,30.07,30.04,30.01,10,10,9,8,5,,0.00,7,,180